sensor_id;sensor_type;location;lat;lon;timestamp;pressure;altitude;pressure_sealevel;temperature;humidity
13800;BME280;6971;50.028;9.258;2023-04-10T00:00:28;100080.91;;;1.12;100.00
13800;BME280;6971;50.028;9.258;2023-04-10T00:05:30;100084.38;;;1.06;100.00
13800;BME280;6971;50.028;9.258;2023-04-10T00:10:31;100080.06;;;1.02;100.00
13800;BME280;6971;50.028;9.258;2023-04-10T00:15:32;100076.59;;;1.06;100.00
13800;BME280;6971;50.028;9.258;2023-04-10T00:20:32;100068.84;;;0.97;100.00
13800;BME280;6971;50.028;9.258;2023-04-10T00:25:33;100074.91;;;0.99;100.00
13800;BME280;6971;50.028;9.258;2023-04-10T00:30:33;100075.75;;;1.07;100.00
13800;BME280;6971;50.028;9.258;2023-04-10T00:35:33;100074.03;;;0.98;100.00
13800;BME280;6971;50.028;9.258;2023-04-10T00:40:34;100081.00;;;0.90;100.00
13800;BME280;6971;50.028;9.258;2023-04-10T00:45:34;100087.09;;;0.81;100.00
13800;BME280;6971;50.028;9.258;2023-04-10T00:50:35;100087.94;;;0.91;100.00
13800;BME280;6971;50.028;9.258;2023-04-10T00:55:35;100092.25;;;0.87;100.00
13800;BME280;6971;50.028;9.258;2023-04-10T01:00:36;100092.25;;;0.84;100.00
13800;BME280;6971;50.028;9.258;2023-04-10T01:06:11;100097.47;;;0.76;100.00
13800;BME280;6971;50.028;9.258;2023-04-10T01:11:29;100099.22;;;0.76;100.00
13800;BME280;6971;50.028;9.258;2023-04-10T01:16:35;100102.69;;;0.72;100.00
13800;BME280;6971;50.028;9.258;2023-04-10T01:21:39;100098.38;;;0.68;100.00
13800;BME280;6971;50.028;9.258;2023-04-10T01:32:07;100088.88;;;0.63;100.00
13800;BME280;6971;50.028;9.258;2023-04-10T01:37:15;100105.28;;;0.64;100.00
13800;BME280;6971;50.028;9.258;2023-04-10T01:42:17;100098.38;;;0.61;100.00
13800;BME280;6971;50.028;9.258;2023-04-10T01:47:19;100090.63;;;0.55;100.00
13800;BME280;6971;50.028;9.258;2023-04-10T01:52:21;100082.81;;;0.60;100.00
13800;BME280;6971;50.028;9.258;2023-04-10T01:57:23;100092.34;;;0.58;100.00
13800;BME280;6971;50.028;9.258;2023-04-10T02:02:23;100084.59;;;0.51;100.00
13800;BME280;6971;50.028;9.258;2023-04-10T02:07:34;100082.84;;;0.54;100.00
13800;BME280;6971;50.028;9.258;2023-04-10T02:12:39;100082.84;;;0.54;100.00
13800;BME280;6971;50.028;9.258;2023-04-10T02:17:41;100079.41;;;0.47;100.00
13800;BME280;6971;50.028;9.258;2023-04-10T02:22:42;100087.19;;;0.25;100.00
13800;BME280;6971;50.028;9.258;2023-04-10T02:27:43;100088.91;;;0.40;100.00
13800;BME280;6971;50.028;9.258;2023-04-10T02:32:43;100083.72;;;0.35;100.00
13800;BME280;6971;50.028;9.258;2023-04-10T02:37:44;100077.69;;;0.38;100.00
13800;BME280;6971;50.028;9.258;2023-04-10T02:42:46;100070.78;;;0.34;100.00
13800;BME280;6971;50.028;9.258;2023-04-10T02:47:46;100075.09;;;0.36;100.00
13800;BME280;6971;50.028;9.258;2023-04-10T02:52:47;100066.44;;;0.41;100.00
13800;BME280;6971;50.028;9.258;2023-04-10T02:57:47;100052.63;;;0.32;100.00
13800;BME280;6971;50.028;9.258;2023-04-10T03:02:47;100050.88;;;0.37;100.00
13800;BME280;6971;50.028;9.258;2023-04-10T03:07:48;100063.88;;;0.27;100.00
13800;BME280;6971;50.028;9.258;2023-04-10T03:12:48;100059.56;;;0.27;100.00
13800;BME280;6971;50.028;9.258;2023-04-10T03:17:49;100051.78;;;0.27;100.00
13800;BME280;6971;50.028;9.258;2023-04-10T03:22:49;100049.19;;;0.21;100.00
13800;BME280;6971;50.028;9.258;2023-04-10T03:27:50;100046.59;;;0.21;100.00
13800;BME280;6971;50.028;9.258;2023-04-10T03:32:50;100044.00;;;0.21;100.00
13800;BME280;6971;50.028;9.258;2023-04-10T03:37:50;100038.81;;;0.22;100.00
13800;BME280;6971;50.028;9.258;2023-04-10T03:42:51;100043.13;;;0.25;100.00
13800;BME280;6971;50.028;9.258;2023-04-10T03:47:51;100035.34;;;0.30;100.00
13800;BME280;6971;50.028;9.258;2023-04-10T03:52:52;100041.38;;;0.46;100.00
13800;BME280;6971;50.028;9.258;2023-04-10T03:57:52;100030.09;;;0.44;100.00
13800;BME280;6971;50.028;9.258;2023-04-10T04:02:52;100029.28;;;0.42;100.00
13800;BME280;6971;50.028;9.258;2023-04-10T04:07:54;100029.25;;;0.46;100.00
13800;BME280;6971;50.028;9.258;2023-04-10T04:12:54;100022.28;;;0.53;100.00
13800;BME280;6971;50.028;9.258;2023-04-10T04:17:56;100028.38;;;0.52;100.00
13800;BME280;6971;50.028;9.258;2023-04-10T04:22:56;100021.47;;;0.56;100.00
13800;BME280;6971;50.028;9.258;2023-04-10T04:27:56;100029.19;;;0.62;100.00
13800;BME280;6971;50.028;9.258;2023-04-10T04:32:57;100028.31;;;0.68;100.00
13800;BME280;6971;50.028;9.258;2023-04-10T04:37:57;100030.03;;;0.70;100.00
13800;BME280;6971;50.028;9.258;2023-04-10T04:42:57;100030.88;;;0.80;100.00
13800;BME280;6971;50.028;9.258;2023-04-10T04:47:58;100025.66;;;0.82;100.00
13800;BME280;6971;50.028;9.258;2023-04-10T04:52:58;100023.00;;;0.97;100.00
13800;BME280;6971;50.028;9.258;2023-04-10T04:57:59;100029.91;;;1.04;100.00
13800;BME280;6971;50.028;9.258;2023-04-10T05:02:59;100021.19;;;1.12;100.00
13800;BME280;6971;50.028;9.258;2023-04-10T05:08:00;100023.72;;;1.21;100.00
13800;BME280;6971;50.028;9.258;2023-04-10T05:13:00;100022.84;;;1.27;100.00
13800;BME280;6971;50.028;9.258;2023-04-10T05:18:00;100029.66;;;1.47;100.00
13800;BME280;6971;50.028;9.258;2023-04-10T05:23:01;100030.41;;;1.63;100.00
13800;BME280;6971;50.028;9.258;2023-04-10T05:28:01;100038.84;;;1.90;100.00
13800;BME280;6971;50.028;9.258;2023-04-10T05:33:02;100044.69;;;2.15;100.00
13800;BME280;6971;50.028;9.258;2023-04-10T05:38:03;100042.72;;;2.39;100.00
13800;BME280;6971;50.028;9.258;2023-04-10T05:43:03;100047.75;;;2.58;100.00
13800;BME280;6971;50.028;9.258;2023-04-10T05:48:03;100055.06;;;2.98;100.00
13800;BME280;6971;50.028;9.258;2023-04-10T05:53:04;100064.19;;;3.32;100.00
13800;BME280;6971;50.028;9.258;2023-04-10T05:58:04;100069.06;;;3.56;100.00
13800;BME280;6971;50.028;9.258;2023-04-10T06:03:04;100056.16;;;4.52;100.00
13800;BME280;6971;50.028;9.258;2023-04-10T06:08:05;100062.16;;;5.01;99.85
13800;BME280;6971;50.028;9.258;2023-04-10T06:13:05;100060.81;;;5.24;95.95
13800;BME280;6971;50.028;9.258;2023-04-10T06:18:05;100066.44;;;5.45;92.77
13800;BME280;6971;50.028;9.258;2023-04-10T06:23:06;100063.28;;;5.70;90.93
13800;BME280;6971;50.028;9.258;2023-04-10T06:28:06;100063.78;;;5.84;88.59
13800;BME280;6971;50.028;9.258;2023-04-10T06:33:06;100060.09;;;5.95;87.53
13800;BME280;6971;50.028;9.258;2023-04-10T06:38:07;100062.25;;;6.13;86.04
13800;BME280;6971;50.028;9.258;2023-04-10T06:43:07;100054.19;;;6.21;86.63
13800;BME280;6971;50.028;9.258;2023-04-10T06:48:07;100050.97;;;6.45;83.51
13800;BME280;6971;50.028;9.258;2023-04-10T06:53:08;100049.31;;;6.74;82.31
13800;BME280;6971;50.028;9.258;2023-04-10T06:58:08;100052.97;;;6.98;79.96
13800;BME280;6971;50.028;9.258;2023-04-10T07:03:08;100054.97;;;7.20;80.23
13800;BME280;6971;50.028;9.258;2023-04-10T07:08:09;100063.84;;;7.44;77.12
13800;BME280;6971;50.028;9.258;2023-04-10T07:13:09;100055.34;;;7.65;77.11
13800;BME280;6971;50.028;9.258;2023-04-10T07:18:09;100049.97;;;7.69;77.25
13800;BME280;6971;50.028;9.258;2023-04-10T07:23:10;100049.53;;;7.83;76.13
13800;BME280;6971;50.028;9.258;2023-04-10T07:28:10;100052.38;;;8.03;75.60
13800;BME280;6971;50.028;9.258;2023-04-10T07:33:11;100035.53;;;8.10;73.71
13800;BME280;6971;50.028;9.258;2023-04-10T07:38:11;100043.31;;;8.39;73.07
13800;BME280;6971;50.028;9.258;2023-04-10T07:43:12;100033.63;;;8.66;73.20
13800;BME280;6971;50.028;9.258;2023-04-10T07:48:12;100041.06;;;9.03;70.48
13800;BME280;6971;50.028;9.258;2023-04-10T07:53:12;100028.72;;;9.49;69.24
13800;BME280;6971;50.028;9.258;2023-04-10T07:58:13;100027.91;;;9.92;67.75
13800;BME280;6971;50.028;9.258;2023-04-10T08:03:14;100019.75;;;10.19;65.70
13800;BME280;6971;50.028;9.258;2023-04-10T08:08:15;100018.28;;;10.93;63.59
13800;BME280;6971;50.028;9.258;2023-04-10T08:13:15;100020.53;;;11.40;62.55
13800;BME280;6971;50.028;9.258;2023-04-10T08:18:15;100015.72;;;11.67;61.02
13800;BME280;6971;50.028;9.258;2023-04-10T08:23:16;100008.50;;;12.24;58.80
13800;BME280;6971;50.028;9.258;2023-04-10T08:28:16;100005.50;;;12.65;58.67
13800;BME280;6971;50.028;9.258;2023-04-10T08:33:18;100006.25;;;14.11;54.04
13800;BME280;6971;50.028;9.258;2023-04-10T08:38:20;100009.88;;;13.63;53.87
13800;BME280;6971;50.028;9.258;2023-04-10T08:43:25;99993.66;;;13.84;53.39
13800;BME280;6971;50.028;9.258;2023-04-10T08:48:31;99993.00;;;14.26;50.81
13800;BME280;6971;50.028;9.258;2023-04-10T08:53:39;99992.06;;;14.70;50.96
13800;BME280;6971;50.028;9.258;2023-04-10T08:58:41;99987.31;;;15.60;47.61
13800;BME280;6971;50.028;9.258;2023-04-10T09:03:41;99987.91;;;15.78;46.83
13800;BME280;6971;50.028;9.258;2023-04-10T09:08:42;99977.97;;;16.47;45.50
13800;BME280;6971;50.028;9.258;2023-04-10T09:13:43;99973.91;;;17.17;43.76
13800;BME280;6971;50.028;9.258;2023-04-10T09:18:48;99976.44;;;16.81;42.89
13800;BME280;6971;50.028;9.258;2023-04-10T09:23:59;99952.47;;;14.96;43.17
13800;BME280;6971;50.028;9.258;2023-04-10T09:29:06;99938.59;;;15.06;43.59
13800;BME280;6971;50.028;9.258;2023-04-10T09:34:16;99931.47;;;16.39;41.94
13800;BME280;6971;50.028;9.258;2023-04-10T09:39:17;99926.41;;;15.16;42.76
13800;BME280;6971;50.028;9.258;2023-04-10T09:44:27;99916.84;;;16.71;41.79
13800;BME280;6971;50.028;9.258;2023-04-10T09:49:43;99913.81;;;16.89;41.33
13800;BME280;6971;50.028;9.258;2023-04-10T09:54:44;99896.94;;;16.26;41.55
13800;BME280;6971;50.028;9.258;2023-04-10T09:59:52;99898.66;;;17.27;39.73
13800;BME280;6971;50.028;9.258;2023-04-10T10:04:53;99888.84;;;16.15;39.42
13800;BME280;6971;50.028;9.258;2023-04-10T10:09:54;99882.84;;;16.88;40.24
13800;BME280;6971;50.028;9.258;2023-04-10T10:15:17;99876.28;;;15.52;42.11
13800;BME280;6971;50.028;9.258;2023-04-10T10:20:20;99857.13;;;15.34;41.38
13800;BME280;6971;50.028;9.258;2023-04-10T10:25:22;99854.03;;;15.27;43.12
13800;BME280;6971;50.028;9.258;2023-04-10T10:30:23;99838.44;;;16.26;41.78
13800;BME280;6971;50.028;9.258;2023-04-10T10:35:25;99834.94;;;16.88;39.65
13800;BME280;6971;50.028;9.258;2023-04-10T10:40:31;99821.63;;;16.88;40.41
13800;BME280;6971;50.028;9.258;2023-04-10T10:45:47;99821.44;;;17.02;39.42
13800;BME280;6971;50.028;9.258;2023-04-10T10:50:50;99810.38;;;17.08;39.95
13800;BME280;6971;50.028;9.258;2023-04-10T10:55:51;99810.13;;;16.87;40.40
13800;BME280;6971;50.028;9.258;2023-04-10T11:05:55;99820.94;;;18.14;38.02
13800;BME280;6971;50.028;9.258;2023-04-10T11:11:08;99796.88;;;16.99;39.75
13800;BME280;6971;50.028;9.258;2023-04-10T11:16:09;99792.19;;;18.07;39.04
13800;BME280;6971;50.028;9.258;2023-04-10T11:21:17;99779.94;;;17.70;38.93
13800;BME280;6971;50.028;9.258;2023-04-10T11:26:37;99760.16;;;17.15;39.92
13800;BME280;6971;50.028;9.258;2023-04-10T11:31:42;99769.66;;;17.99;38.42
13800;BME280;6971;50.028;9.258;2023-04-10T11:36:43;99755.31;;;17.20;38.39
13800;BME280;6971;50.028;9.258;2023-04-10T11:41:47;99751.34;;;17.60;37.63
13800;BME280;6971;50.028;9.258;2023-04-10T11:46:48;99748.06;;;17.22;38.27
13800;BME280;6971;50.028;9.258;2023-04-10T11:51:50;99740.94;;;17.92;37.06
13800;BME280;6971;50.028;9.258;2023-04-10T11:57:02;99721.56;;;18.45;35.47
13800;BME280;6971;50.028;9.258;2023-04-10T12:02:13;99702.72;;;17.00;35.44
13800;BME280;6971;50.028;9.258;2023-04-10T12:07:14;99698.84;;;18.07;34.79
13800;BME280;6971;50.028;9.258;2023-04-10T12:12:14;99685.44;;;18.41;35.35
13800;BME280;6971;50.028;9.258;2023-04-10T12:17:15;99680.75;;;18.33;34.22
13800;BME280;6971;50.028;9.258;2023-04-10T12:22:16;99688.69;;;18.45;34.00
13800;BME280;6971;50.028;9.258;2023-04-10T12:27:23;99678.53;;;18.38;34.15
13800;BME280;6971;50.028;9.258;2023-04-10T12:32:26;99680.66;;;17.22;35.10
13800;BME280;6971;50.028;9.258;2023-04-10T12:37:46;99675.06;;;17.14;36.21
13800;BME280;6971;50.028;9.258;2023-04-10T12:42:46;99669.03;;;16.76;35.18
13800;BME280;6971;50.028;9.258;2023-04-10T12:47:48;99656.25;;;17.04;34.88
13800;BME280;6971;50.028;9.258;2023-04-10T12:53:04;99656.97;;;16.47;35.95
13800;BME280;6971;50.028;9.258;2023-04-10T12:58:15;99651.22;;;16.29;35.95
13800;BME280;6971;50.028;9.258;2023-04-10T13:03:17;99645.47;;;16.35;36.92
13800;BME280;6971;50.028;9.258;2023-04-10T13:08:18;99636.97;;;16.66;36.45
13800;BME280;6971;50.028;9.258;2023-04-10T13:13:19;99634.78;;;16.71;36.82
13800;BME280;6971;50.028;9.258;2023-04-10T13:18:19;99628.50;;;16.61;35.46
13800;BME280;6971;50.028;9.258;2023-04-10T13:23:20;99624.44;;;16.91;37.26
13800;BME280;6971;50.028;9.258;2023-04-10T13:28:20;99616.72;;;17.22;36.33
13800;BME280;6971;50.028;9.258;2023-04-10T13:33:20;99596.84;;;17.03;35.79
13800;BME280;6971;50.028;9.258;2023-04-10T13:38:21;99593.22;;;16.93;34.82
13800;BME280;6971;50.028;9.258;2023-04-10T13:43:21;99594.09;;;17.05;34.64
13800;BME280;6971;50.028;9.258;2023-04-10T13:48:21;99583.31;;;16.95;34.18
13800;BME280;6971;50.028;9.258;2023-04-10T13:53:22;99576.72;;;16.76;33.93
13800;BME280;6971;50.028;9.258;2023-04-10T13:58:22;99566.38;;;17.07;34.40
13800;BME280;6971;50.028;9.258;2023-04-10T14:03:23;99568.03;;;16.86;34.34
13800;BME280;6971;50.028;9.258;2023-04-10T14:08:23;99551.16;;;16.39;34.84
13800;BME280;6971;50.028;9.258;2023-04-10T14:13:23;99561.03;;;16.84;35.51
13800;BME280;6971;50.028;9.258;2023-04-10T14:18:24;99548.91;;;17.03;34.70
13800;BME280;6971;50.028;9.258;2023-04-10T14:23:24;99526.66;;;17.16;35.14
13800;BME280;6971;50.028;9.258;2023-04-10T14:28:24;99524.34;;;17.22;34.91
13800;BME280;6971;50.028;9.258;2023-04-10T14:33:25;99517.47;;;16.86;34.90
13800;BME280;6971;50.028;9.258;2023-04-10T14:38:25;99522.19;;;16.93;35.52
13800;BME280;6971;50.028;9.258;2023-04-10T14:43:25;99509.00;;;16.92;35.68
13800;BME280;6971;50.028;9.258;2023-04-10T14:48:26;99499.06;;;17.28;34.55
13800;BME280;6971;50.028;9.258;2023-04-10T14:53:26;99490.91;;;17.41;34.55
13800;BME280;6971;50.028;9.258;2023-04-10T14:58:26;99481.69;;;16.78;33.54
13800;BME280;6971;50.028;9.258;2023-04-10T15:03:27;99475.63;;;16.88;36.15
13800;BME280;6971;50.028;9.258;2023-04-10T15:08:27;99466.41;;;16.92;34.51
13800;BME280;6971;50.028;9.258;2023-04-10T15:13:27;99455.91;;;16.90;34.61
13800;BME280;6971;50.028;9.258;2023-04-10T15:18:28;99441.53;;;16.70;33.38
13800;BME280;6971;50.028;9.258;2023-04-10T15:23:31;99438.00;;;16.69;34.99
13800;BME280;6971;50.028;9.258;2023-04-10T15:28:31;99420.50;;;16.44;34.46
13800;BME280;6971;50.028;9.258;2023-04-10T15:33:35;99406.00;;;16.60;34.27
13800;BME280;6971;50.028;9.258;2023-04-10T15:38:37;99403.81;;;16.65;34.73
13800;BME280;6971;50.028;9.258;2023-04-10T15:43:37;99400.91;;;16.56;36.53
13800;BME280;6971;50.028;9.258;2023-04-10T15:48:38;99393.75;;;16.57;34.25
13800;BME280;6971;50.028;9.258;2023-04-10T15:53:38;99382.06;;;16.48;34.07
13800;BME280;6971;50.028;9.258;2023-04-10T15:58:38;99385.06;;;16.66;34.82
13800;BME280;6971;50.028;9.258;2023-04-10T16:03:39;99351.31;;;16.67;34.98
13800;BME280;6971;50.028;9.258;2023-04-10T16:08:39;99345.78;;;16.36;34.13
13800;BME280;6971;50.028;9.258;2023-04-10T16:13:40;99323.06;;;16.31;35.18
13800;BME280;6971;50.028;9.258;2023-04-10T16:18:41;99321.75;;;16.14;34.82
13800;BME280;6971;50.028;9.258;2023-04-10T16:23:43;99304.47;;;16.20;34.79
13800;BME280;6971;50.028;9.258;2023-04-10T16:28:44;99300.09;;;16.42;35.59
13800;BME280;6971;50.028;9.258;2023-04-10T16:33:44;99300.94;;;16.42;34.33
13800;BME280;6971;50.028;9.258;2023-04-10T16:38:44;99297.91;;;16.47;34.87
13800;BME280;6971;50.028;9.258;2023-04-10T16:43:48;99300.94;;;16.42;34.69
13800;BME280;6971;50.028;9.258;2023-04-10T16:48:48;99291.44;;;16.28;35.56
13800;BME280;6971;50.028;9.258;2023-04-10T16:53:50;99283.22;;;16.09;34.81
13800;BME280;6971;50.028;9.258;2023-04-10T16:58:50;99287.69;;;15.97;35.17
13800;BME280;6971;50.028;9.258;2023-04-10T17:03:51;99282.69;;;15.92;34.85
13800;BME280;6971;50.028;9.258;2023-04-10T17:08:51;99278.75;;;15.86;35.39
13800;BME280;6971;50.028;9.258;2023-04-10T17:13:52;99256.38;;;15.77;35.27
13800;BME280;6971;50.028;9.258;2023-04-10T17:18:52;99242.16;;;15.67;35.43
13800;BME280;6971;50.028;9.258;2023-04-10T17:23:52;99246.72;;;15.65;36.20
13800;BME280;6971;50.028;9.258;2023-04-10T17:28:53;99247.91;;;15.61;35.15
13800;BME280;6971;50.028;9.258;2023-04-10T17:33:53;99232.09;;;15.48;38.40
13800;BME280;6971;50.028;9.258;2023-04-10T17:38:53;99233.19;;;15.57;35.51
13800;BME280;6971;50.028;9.258;2023-04-10T17:43:54;99231.50;;;15.44;36.90
13800;BME280;6971;50.028;9.258;2023-04-10T17:48:54;99222.06;;;15.29;36.90
13800;BME280;6971;50.028;9.258;2023-04-10T17:54:00;99210.00;;;15.24;36.89
13800;BME280;6971;50.028;9.258;2023-04-10T17:59:00;99205.25;;;15.05;37.94
13800;BME280;6971;50.028;9.258;2023-04-10T18:04:01;99201.63;;;15.06;36.88
13800;BME280;6971;50.028;9.258;2023-04-10T18:09:02;99191.38;;;15.01;37.86
13800;BME280;6971;50.028;9.258;2023-04-10T18:14:02;99194.81;;;14.79;39.27
13800;BME280;6971;50.028;9.258;2023-04-10T18:19:03;99195.09;;;14.63;39.24
13800;BME280;6971;50.028;9.258;2023-04-10T18:24:03;99184.47;;;14.63;38.29
13800;BME280;6971;50.028;9.258;2023-04-10T18:29:04;99199.78;;;14.84;38.89
13800;BME280;6971;50.028;9.258;2023-04-10T18:34:04;99209.44;;;14.36;41.83
13800;BME280;6971;50.028;9.258;2023-04-10T18:39:05;99209.72;;;14.44;41.02
13800;BME280;6971;50.028;9.258;2023-04-10T18:44:05;99205.19;;;14.33;41.71
13800;BME280;6971;50.028;9.258;2023-04-10T18:49:05;99195.97;;;14.02;43.16
13800;BME280;6971;50.028;9.258;2023-04-10T18:54:06;99179.75;;;14.06;42.17
13800;BME280;6971;50.028;9.258;2023-04-10T18:59:07;99181.16;;;13.99;41.99
13800;BME280;6971;50.028;9.258;2023-04-10T19:04:07;99190.69;;;14.02;42.35
13800;BME280;6971;50.028;9.258;2023-04-10T19:09:07;99202.91;;;13.91;41.60
13800;BME280;6971;50.028;9.258;2023-04-10T19:14:08;99203.94;;;14.02;40.72
13800;BME280;6971;50.028;9.258;2023-04-10T19:19:08;99187.53;;;13.96;40.47
13800;BME280;6971;50.028;9.258;2023-04-10T19:24:08;99181.50;;;13.94;41.74
13800;BME280;6971;50.028;9.258;2023-04-10T19:29:09;99195.25;;;14.00;40.87
13800;BME280;6971;50.028;9.258;2023-04-10T19:34:09;99203.91;;;13.64;44.74
13800;BME280;6971;50.028;9.258;2023-04-10T19:39:11;99204.59;;;13.92;40.67
13800;BME280;6971;50.028;9.258;2023-04-10T19:44:11;99193.00;;;13.69;43.90
13800;BME280;6971;50.028;9.258;2023-04-10T19:49:12;99171.69;;;13.70;43.02
13800;BME280;6971;50.028;9.258;2023-04-10T19:54:12;99173.41;;;13.72;42.79
13800;BME280;6971;50.028;9.258;2023-04-10T19:59:12;99171.59;;;13.72;42.38
13800;BME280;6971;50.028;9.258;2023-04-10T20:04:13;99165.16;;;13.63;42.80
13800;BME280;6971;50.028;9.258;2023-04-10T20:09:16;99153.41;;;13.67;42.11
13800;BME280;6971;50.028;9.258;2023-04-10T20:14:16;99144.59;;;13.67;41.39
13800;BME280;6971;50.028;9.258;2023-04-10T20:19:17;99126.63;;;13.59;43.10
13800;BME280;6971;50.028;9.258;2023-04-10T20:24:17;99102.31;;;12.76;57.03
13800;BME280;6971;50.028;9.258;2023-04-10T20:29:17;99088.19;;;12.23;60.53
13800;BME280;6971;50.028;9.258;2023-04-10T20:34:18;99091.31;;;11.88;62.27
13800;BME280;6971;50.028;9.258;2023-04-10T20:39:18;99089.03;;;11.69;63.99
13800;BME280;6971;50.028;9.258;2023-04-10T20:44:21;99081.72;;;11.30;66.24
13800;BME280;6971;50.028;9.258;2023-04-10T20:49:21;99063.28;;;11.30;66.48
13800;BME280;6971;50.028;9.258;2023-04-10T20:54:21;99063.94;;;11.19;68.07
13800;BME280;6971;50.028;9.258;2023-04-10T20:59:23;99065.38;;;11.10;67.88
13800;BME280;6971;50.028;9.258;2023-04-10T21:04:23;99057.00;;;11.04;69.54
13800;BME280;6971;50.028;9.258;2023-04-10T21:09:23;99066.88;;;11.15;66.86
13800;BME280;6971;50.028;9.258;2023-04-10T21:14:24;99061.50;;;10.87;69.51
13800;BME280;6971;50.028;9.258;2023-04-10T21:19:24;99045.44;;;10.92;71.04
13800;BME280;6971;50.028;9.258;2023-04-10T21:24:24;99032.69;;;10.84;71.80
13800;BME280;6971;50.028;9.258;2023-04-10T21:29:25;99029.59;;;10.92;71.06
13800;BME280;6971;50.028;9.258;2023-04-10T21:34:25;99040.03;;;10.93;70.55
13800;BME280;6971;50.028;9.258;2023-04-10T21:39:28;99042.78;;;10.77;75.21
13800;BME280;6971;50.028;9.258;2023-04-10T21:44:28;99026.31;;;10.74;75.70
13800;BME280;6971;50.028;9.258;2023-04-10T21:49:28;99024.78;;;10.69;75.53
13800;BME280;6971;50.028;9.258;2023-04-10T21:54:29;99025.56;;;10.86;72.90
13800;BME280;6971;50.028;9.258;2023-04-10T21:59:29;98982.03;;;11.63;66.05
13800;BME280;6971;50.028;9.258;2023-04-10T22:04:30;98939.88;;;12.02;65.05
13800;BME280;6971;50.028;9.258;2023-04-10T22:09:31;98939.66;;;12.70;61.12
13800;BME280;6971;50.028;9.258;2023-04-10T22:14:31;98931.63;;;12.72;62.14
13800;BME280;6971;50.028;9.258;2023-04-10T22:19:31;98937.41;;;12.90;60.72
13800;BME280;6971;50.028;9.258;2023-04-10T22:24:32;98930.19;;;12.92;58.98
13800;BME280;6971;50.028;9.258;2023-04-10T22:29:33;98928.66;;;13.14;57.88
13800;BME280;6971;50.028;9.258;2023-04-10T22:34:34;98914.13;;;13.19;58.65
13800;BME280;6971;50.028;9.258;2023-04-10T22:39:34;98906.41;;;13.16;58.30
13800;BME280;6971;50.028;9.258;2023-04-10T22:44:35;98916.84;;;13.31;57.56
13800;BME280;6971;50.028;9.258;2023-04-10T22:49:35;98914.31;;;13.29;57.00
13800;BME280;6971;50.028;9.258;2023-04-10T22:54:35;98910.81;;;13.29;58.46
13800;BME280;6971;50.028;9.258;2023-04-10T22:59:36;98916.84;;;13.31;57.51
13800;BME280;6971;50.028;9.258;2023-04-10T23:04:36;98924.03;;;13.29;58.00
13800;BME280;6971;50.028;9.258;2023-04-10T23:09:37;98922.34;;;13.28;60.11
13800;BME280;6971;50.028;9.258;2023-04-10T23:14:37;98927.66;;;13.28;60.46
13800;BME280;6971;50.028;9.258;2023-04-10T23:19:37;98975.41;;;12.89;66.10
13800;BME280;6971;50.028;9.258;2023-04-10T23:24:37;99009.44;;;12.16;74.68
13800;BME280;6971;50.028;9.258;2023-04-10T23:29:38;98996.41;;;11.17;95.50
13800;BME280;6971;50.028;9.258;2023-04-10T23:34:38;98986.28;;;10.96;100.00
13800;BME280;6971;50.028;9.258;2023-04-10T23:39:38;98978.97;;;10.72;100.00
13800;BME280;6971;50.028;9.258;2023-04-10T23:44:39;98982.56;;;10.56;100.00
13800;BME280;6971;50.028;9.258;2023-04-10T23:49:39;98976.81;;;10.50;100.00
13800;BME280;6971;50.028;9.258;2023-04-10T23:54:39;98958.41;;;10.34;100.00
13800;BME280;6971;50.028;9.258;2023-04-10T23:59:42;98953.84;;;10.06;100.00
